createdAt,value
2023-04-25T00:02:13.348Z,20.38
2023-04-25T00:04:41.123Z,14.75
2023-04-25T00:07:08.176Z,15.48
2023-04-25T00:09:35.031Z,16.52
2023-04-25T00:12:02.485Z,14.43
2023-04-25T00:14:30.192Z,15.68
2023-04-25T00:16:57.175Z,16.70
2023-04-25T00:19:24.088Z,16.48
2023-04-25T00:21:51.000Z,20.50
2023-04-25T00:24:17.861Z,13.90
2023-04-25T00:26:44.751Z,14.32
2023-04-25T00:29:11.639Z,13.70
2023-04-25T00:31:38.545Z,17.20
2023-04-25T00:34:05.564Z,16.38
2023-04-25T00:36:32.439Z,19.67
2023-04-25T00:38:59.281Z,14.75
2023-04-25T00:41:27.529Z,18.77
2023-04-25T00:43:56.451Z,19.05
2023-04-25T00:46:23.472Z,14.95
2023-04-25T00:48:50.254Z,12.48
2023-04-25T00:51:22.154Z,16.80
2023-04-25T00:53:51.062Z,19.13
2023-04-25T00:56:18.715Z,16.02
2023-04-25T00:58:45.701Z,16.25
2023-04-25T01:01:13.769Z,15.85
2023-04-25T01:03:44.482Z,16.45
2023-04-25T01:06:13.483Z,15.80
2023-04-25T01:08:40.491Z,16.88
2023-04-25T01:11:07.780Z,15.32
2023-04-25T01:13:35.491Z,15.23
2023-04-25T01:16:03.904Z,17.63
2023-04-25T01:18:30.812Z,18.98
2023-04-25T01:21:07.786Z,16.33
2023-04-25T01:23:34.709Z,16.85
2023-04-25T01:26:02.259Z,21.35
2023-04-25T01:28:30.044Z,16.52
2023-04-25T01:30:57.987Z,17.15
2023-04-25T01:33:24.879Z,16.77
2023-04-25T01:35:51.991Z,14.65
2023-04-25T01:38:18.824Z,18.33
2023-04-25T01:40:48.160Z,15.80
2023-04-25T01:43:15.399Z,17.02
2023-04-25T01:45:43.232Z,16.67
2023-04-25T01:48:11.452Z,13.02
2023-04-25T01:50:39.339Z,17.13
2023-04-25T01:53:06.714Z,12.50
2023-04-25T01:55:33.739Z,15.23
2023-04-25T01:58:01.687Z,13.48
2023-04-25T02:00:28.543Z,13.38
2023-04-25T02:02:58.648Z,20.88
2023-04-25T02:05:25.577Z,17.92
2023-04-25T02:07:52.336Z,17.00
2023-04-25T02:10:19.143Z,16.30
2023-04-25T02:12:46.012Z,12.95
2023-04-25T02:15:12.907Z,16.88
2023-04-25T02:17:40.276Z,16.95
2023-04-25T02:20:07.669Z,13.23
2023-04-25T02:22:35.103Z,15.35
2023-04-25T02:25:02.053Z,13.30
2023-04-25T02:27:28.830Z,16.50
2023-04-25T02:29:55.550Z,14.20
2023-04-25T02:32:22.492Z,15.27
2023-04-25T02:34:49.310Z,12.50
2023-04-25T02:37:16.104Z,15.27
2023-04-25T02:39:42.882Z,12.95
2023-04-25T02:42:09.670Z,11.30
2023-04-25T02:44:36.412Z,18.13
2023-04-25T02:47:03.309Z,14.18
2023-04-25T02:49:30.223Z,17.52
2023-04-25T02:51:56.988Z,12.15
2023-04-25T02:54:23.824Z,14.70
2023-04-25T02:56:50.905Z,15.85
2023-04-25T02:59:17.643Z,11.90
2023-04-25T03:01:44.512Z,13.10
2023-04-25T03:04:11.332Z,15.18
2023-04-25T03:06:38.116Z,15.75
2023-04-25T03:09:05.481Z,11.15
2023-04-25T03:11:32.264Z,13.00
2023-04-25T03:13:59.121Z,13.95
2023-04-25T03:16:26.211Z,11.30
2023-04-25T03:18:52.986Z,15.60
2023-04-25T03:21:19.771Z,15.02
2023-04-25T03:23:46.626Z,18.67
2023-04-25T03:26:13.466Z,13.52
2023-04-25T03:28:41.146Z,15.00
2023-04-25T03:31:07.857Z,11.07
2023-04-25T03:33:34.607Z,12.50
2023-04-25T03:36:01.376Z,15.38
2023-04-25T03:38:28.136Z,11.68
2023-04-25T03:40:55.233Z,14.20
2023-04-25T03:43:22.055Z,13.05
2023-04-25T03:45:49.008Z,12.85
2023-04-25T03:48:16.214Z,12.35
2023-04-25T03:50:43.013Z,13.93
2023-04-25T03:53:09.774Z,12.98
2023-04-25T03:55:36.522Z,13.60
2023-04-25T03:58:03.255Z,11.52
2023-04-25T04:00:30.052Z,19.15
2023-04-25T04:02:57.012Z,10.90
2023-04-25T04:05:24.489Z,10.82
2023-04-25T04:07:51.363Z,14.68
2023-04-25T04:10:18.119Z,12.63
2023-04-25T04:12:45.334Z,14.90
2023-04-25T04:15:12.886Z,11.48
2023-04-25T04:17:40.022Z,13.95
2023-04-25T04:20:07.742Z,12.30
2023-04-25T04:22:34.558Z,12.80
2023-04-25T04:25:01.363Z,15.38
2023-04-25T04:27:29.753Z,18.35
2023-04-25T04:29:57.187Z,13.82
2023-04-25T04:32:24.777Z,9.65
2023-04-25T04:34:51.631Z,10.48
2023-04-25T04:37:19.525Z,12.23
2023-04-25T04:39:46.699Z,10.77
2023-04-25T04:42:13.572Z,12.13
2023-04-25T04:44:40.474Z,9.45
2023-04-25T04:47:07.319Z,10.98
2023-04-25T04:49:35.072Z,15.35
2023-04-25T04:52:01.946Z,10.20
2023-04-25T04:54:28.800Z,14.95
2023-04-25T04:56:55.767Z,11.57
2023-04-25T04:59:22.648Z,11.00
2023-04-25T05:01:49.370Z,10.88
2023-04-25T05:04:16.203Z,15.00
2023-04-25T05:06:43.122Z,10.77
2023-04-25T05:09:09.971Z,8.35
2023-04-25T05:11:36.700Z,15.55
2023-04-25T05:14:03.637Z,16.38
2023-04-25T05:16:30.508Z,14.30
2023-04-25T05:18:57.391Z,14.52
2023-04-25T05:21:24.438Z,16.40
2023-04-25T05:23:51.457Z,16.80
2023-04-25T05:26:18.431Z,14.77
2023-04-25T05:28:45.179Z,13.93
2023-04-25T05:31:11.998Z,12.38
2023-04-25T05:33:39.052Z,17.40
2023-04-25T05:36:06.285Z,16.52
2023-04-25T05:38:34.815Z,16.52
2023-04-25T05:41:02.047Z,14.93
2023-04-25T05:43:28.854Z,17.08
2023-04-25T05:45:55.862Z,14.05
2023-04-25T05:48:22.717Z,18.23
2023-04-25T05:50:49.690Z,13.75
2023-04-25T05:53:16.534Z,18.48
2023-04-25T05:55:43.560Z,18.45
2023-04-25T05:58:10.633Z,13.55
2023-04-25T06:00:37.550Z,13.73
2023-04-25T06:03:04.950Z,15.98
2023-04-25T06:05:31.869Z,13.50
2023-04-25T06:07:58.696Z,17.45
2023-04-25T06:10:25.803Z,15.40
2023-04-25T06:12:52.538Z,13.32
2023-04-25T06:17:49.923Z,15.00
2023-04-25T06:20:17.010Z,12.70
2023-04-25T06:22:43.792Z,11.55
2023-04-25T06:25:10.634Z,13.90
2023-04-25T06:27:38.500Z,14.30
2023-04-25T06:30:06.205Z,12.45
2023-04-25T06:32:33.514Z,11.13
2023-04-25T06:35:00.454Z,14.85
2023-04-25T06:37:27.836Z,13.38
2023-04-25T06:39:54.588Z,10.45
2023-04-25T06:42:21.365Z,13.57
2023-04-25T06:44:48.241Z,11.57
2023-04-25T06:47:15.865Z,8.45
2023-04-25T06:49:42.694Z,13.10
2023-04-25T06:52:09.766Z,10.57
2023-04-25T06:54:36.879Z,11.18
2023-04-25T06:57:04.056Z,12.98
2023-04-25T06:59:30.865Z,10.45
2023-04-25T07:01:58.688Z,11.52
2023-04-25T07:04:26.290Z,10.63
2023-04-25T07:06:53.349Z,13.32
2023-04-25T07:09:20.722Z,18.15
2023-04-25T07:11:47.627Z,10.70
2023-04-25T07:14:14.699Z,15.57
2023-04-25T07:16:41.619Z,9.00
2023-04-25T07:19:08.489Z,14.32
2023-04-25T07:21:36.009Z,18.13
2023-04-25T07:24:03.743Z,16.17
2023-04-25T07:26:30.681Z,15.27
2023-04-25T07:28:57.498Z,21.27
2023-04-25T07:31:24.737Z,12.90
2023-04-25T07:33:51.519Z,17.13
2023-04-25T07:36:18.331Z,16.65
2023-04-25T07:38:45.265Z,15.45
2023-04-25T07:41:12.160Z,16.05
2023-04-25T07:43:39.013Z,18.33
2023-04-25T07:46:06.172Z,18.98
2023-04-25T07:48:33.050Z,18.00
2023-04-25T07:51:01.433Z,15.52
2023-04-25T07:53:28.267Z,16.85
2023-04-25T07:55:55.139Z,16.70
2023-04-25T07:58:23.175Z,13.43
2023-04-25T08:00:50.997Z,19.02
2023-04-25T08:03:18.121Z,19.92
2023-04-25T08:05:45.252Z,14.45
2023-04-25T08:08:12.298Z,18.55
2023-04-25T08:10:39.133Z,18.00
2023-04-25T08:13:06.013Z,17.25
2023-04-25T08:15:32.914Z,16.83
2023-04-25T08:18:00.867Z,17.35
2023-04-25T08:20:27.724Z,17.48
2023-04-25T08:22:54.564Z,15.18
2023-04-25T08:25:21.442Z,20.17
2023-04-25T08:27:48.168Z,16.35
2023-04-25T08:30:15.379Z,17.25
2023-04-25T08:32:42.296Z,17.35
2023-04-25T08:35:09.465Z,17.10
2023-04-25T08:37:37.422Z,17.90
2023-04-25T08:40:08.198Z,16.92
2023-04-25T08:42:37.755Z,17.33
2023-04-25T08:47:54.278Z,18.58
2023-04-25T08:50:23.407Z,17.55
2023-04-25T08:52:53.542Z,21.02
2023-04-25T08:55:22.870Z,21.15
2023-04-25T08:57:50.650Z,14.90
2023-04-25T09:00:17.980Z,19.52
2023-04-25T09:02:45.473Z,18.40
2023-04-25T09:05:15.203Z,12.35
2023-04-25T09:07:41.961Z,18.50
2023-04-25T09:10:09.228Z,16.13
2023-04-25T09:12:36.708Z,17.58
2023-04-25T09:15:11.006Z,14.80
2023-04-25T09:17:41.498Z,16.65
2023-04-25T09:20:12.893Z,17.02
2023-04-25T09:22:40.232Z,15.90
2023-04-25T09:25:15.661Z,15.77
2023-04-25T09:27:53.282Z,16.30
2023-04-25T09:30:29.529Z,17.13
2023-04-25T09:32:59.264Z,14.55
2023-04-25T09:35:27.557Z,14.48
2023-04-25T09:37:54.891Z,12.18
2023-04-25T09:40:21.892Z,17.85
2023-04-25T09:42:48.681Z,14.32
2023-04-25T09:45:16.249Z,14.25
2023-04-25T09:47:45.047Z,14.32
2023-04-25T09:50:20.336Z,15.30
2023-04-25T09:53:02.817Z,13.57
2023-04-25T09:55:29.873Z,14.98
2023-04-25T09:58:00.613Z,13.43
2023-04-25T10:00:27.686Z,10.63
2023-04-25T10:02:56.382Z,13.90
2023-04-25T10:05:24.095Z,14.05
2023-04-25T10:07:51.894Z,16.50
2023-04-25T10:10:20.947Z,13.40
2023-04-25T10:12:48.017Z,10.88
2023-04-25T10:15:16.039Z,12.30
2023-04-25T10:17:43.453Z,11.05
2023-04-25T10:20:12.105Z,11.85
2023-04-25T10:22:49.367Z,12.00
2023-04-25T10:25:16.419Z,16.48
2023-04-25T10:27:43.610Z,12.90
2023-04-25T10:30:16.454Z,13.77
2023-04-25T10:32:50.919Z,14.45
2023-04-25T10:35:19.840Z,14.77
2023-04-25T10:38:07.401Z,15.75
2023-04-25T10:40:34.786Z,13.90
2023-04-25T10:43:32.927Z,12.73
2023-04-25T10:46:04.304Z,12.63
2023-04-25T10:48:32.511Z,10.50
2023-04-25T10:51:12.734Z,12.27
2023-04-25T10:53:39.588Z,13.02
2023-04-25T10:56:18.113Z,9.50
2023-04-25T10:58:46.140Z,13.52
2023-04-25T11:01:20.357Z,11.82
2023-04-25T11:03:51.638Z,11.38
2023-04-25T11:06:38.933Z,9.45
2023-04-25T11:09:14.394Z,12.88
2023-04-25T11:11:41.431Z,12.77
2023-04-25T11:14:08.399Z,9.45
2023-04-25T11:16:35.261Z,9.85
2023-04-25T11:19:02.045Z,12.70
2023-04-25T11:21:30.028Z,9.38
2023-04-25T11:24:00.824Z,9.52
2023-04-25T11:26:27.598Z,12.50
2023-04-25T11:29:00.226Z,11.55
2023-04-25T11:31:27.231Z,8.73
2023-04-25T11:34:01.018Z,10.77
2023-04-25T11:38:55.822Z,14.20
2023-04-25T11:41:23.350Z,12.32
2023-04-25T11:43:53.004Z,12.30
2023-04-25T11:46:21.221Z,9.48
2023-04-25T11:48:49.072Z,9.65
2023-04-25T11:51:16.159Z,9.57
2023-04-25T11:53:45.236Z,8.65
2023-04-25T11:56:12.968Z,9.45
2023-04-25T11:58:58.745Z,10.32
2023-04-25T12:01:36.802Z,12.52
2023-04-25T12:04:23.196Z,8.45
2023-04-25T12:06:52.718Z,8.20
2023-04-25T12:09:22.560Z,12.20
2023-04-25T12:11:54.250Z,8.52
2023-04-25T12:14:29.840Z,12.57
2023-04-25T12:17:01.134Z,12.85
2023-04-25T12:19:34.513Z,5.50
2023-04-25T12:22:03.282Z,7.13
2023-04-25T12:24:30.145Z,4.38
2023-04-25T12:27:05.562Z,5.40
2023-04-25T12:29:48.375Z,5.47
2023-04-25T12:34:43.515Z,5.75
2023-04-25T12:37:10.823Z,5.32
2023-04-25T12:39:37.653Z,8.43
2023-04-25T12:42:06.912Z,9.55
2023-04-25T12:44:35.957Z,4.50
2023-04-25T12:47:04.155Z,29.10
2023-04-25T12:49:31.274Z,16.45
2023-04-25T12:51:58.276Z,11.10
2023-04-25T12:54:25.760Z,7.32
2023-04-25T12:56:52.661Z,8.23
2023-04-25T12:59:20.844Z,7.63
2023-04-25T13:01:48.060Z,7.40
2023-04-25T13:04:14.915Z,8.38
2023-04-25T13:06:41.770Z,8.73
2023-04-25T13:09:08.677Z,8.38
2023-04-25T13:11:36.496Z,7.13
2023-04-25T13:14:03.909Z,5.90
2023-04-25T13:16:30.850Z,6.85
2023-04-25T13:18:57.631Z,8.15
2023-04-25T13:21:24.509Z,6.97
2023-04-25T13:23:51.809Z,5.63
2023-04-25T13:26:18.935Z,10.82
2023-04-25T13:28:45.905Z,5.82
2023-04-25T13:31:12.753Z,11.48
2023-04-25T13:33:39.514Z,8.07
2023-04-25T13:36:06.704Z,7.95
2023-04-25T13:38:33.707Z,8.45
2023-04-25T13:41:00.671Z,5.95
2023-04-25T13:43:27.909Z,6.28
2023-04-25T13:45:54.690Z,7.55
2023-04-25T13:48:21.855Z,8.05
2023-04-25T13:50:48.746Z,5.43
2023-04-25T13:53:15.840Z,8.73
2023-04-25T13:55:42.695Z,6.72
2023-04-25T13:58:10.900Z,8.30
2023-04-25T14:00:44.495Z,7.25
2023-04-25T14:03:11.595Z,6.97
2023-04-25T14:05:39.325Z,9.90
2023-04-25T14:08:10.484Z,5.82
2023-04-25T14:10:38.614Z,6.45
2023-04-25T14:13:05.655Z,8.18
2023-04-25T14:15:33.576Z,6.25
2023-04-25T14:18:01.889Z,5.97
2023-04-25T14:20:29.684Z,4.30
2023-04-25T14:22:58.224Z,6.53
2023-04-25T14:25:25.489Z,7.05
2023-04-25T14:27:52.246Z,8.15
2023-04-25T14:30:20.127Z,5.47
2023-04-25T14:32:47.472Z,5.05
2023-04-25T14:35:14.451Z,4.50
2023-04-25T14:37:41.433Z,6.05
2023-04-25T14:40:13.986Z,5.97
2023-04-25T14:42:41.015Z,5.60
2023-04-25T14:45:09.518Z,3.70
2023-04-25T14:47:38.213Z,5.60
2023-04-25T14:50:06.555Z,7.10
2023-04-25T14:52:33.367Z,4.35
2023-04-25T14:55:05.719Z,4.00
2023-04-25T14:57:33.855Z,5.63
2023-04-25T15:00:01.097Z,5.90
2023-04-25T15:02:28.871Z,6.65
2023-04-25T15:04:56.990Z,6.05
2023-04-25T15:07:24.200Z,6.50
2023-04-25T15:09:51.015Z,5.55
2023-04-25T15:12:17.863Z,6.10
2023-04-25T15:14:44.638Z,4.22
2023-04-25T15:17:13.842Z,5.10
2023-04-25T15:19:41.196Z,4.07
2023-04-25T15:22:08.153Z,5.70
2023-04-25T15:24:35.219Z,4.93
2023-04-25T15:27:02.123Z,5.63
2023-04-25T15:29:29.720Z,4.85
2023-04-25T15:31:56.814Z,4.15
2023-04-25T15:34:23.643Z,4.03
2023-04-25T15:36:50.399Z,3.67
2023-04-25T15:39:17.719Z,6.63
2023-04-25T15:41:44.523Z,5.55
2023-04-25T15:44:11.330Z,5.28
2023-04-25T15:46:38.665Z,4.90
2023-04-25T15:49:05.490Z,6.50
2023-04-25T15:51:33.639Z,6.30
2023-04-25T15:54:02.900Z,8.60
2023-04-25T15:56:29.760Z,4.70
2023-04-25T15:58:56.553Z,3.60
2023-04-25T16:01:24.732Z,3.42
2023-04-25T16:03:53.163Z,5.80
2023-04-25T16:06:20.404Z,4.40
2023-04-25T16:08:47.258Z,5.68
2023-04-25T16:11:14.929Z,5.50
2023-04-25T16:13:41.821Z,3.67
2023-04-25T16:16:08.988Z,3.92
2023-04-25T16:18:35.999Z,4.50
2023-04-25T16:21:03.473Z,5.38
2023-04-25T16:23:31.374Z,5.45
2023-04-25T16:25:58.242Z,4.47
2023-04-25T16:28:25.065Z,3.83
2023-04-25T16:30:51.909Z,5.07
2023-04-25T16:33:18.882Z,5.32
2023-04-25T16:35:45.647Z,6.78
2023-04-25T16:38:12.414Z,4.47
2023-04-25T16:40:39.248Z,4.70
2023-04-25T16:43:06.014Z,5.43
2023-04-25T16:45:32.769Z,5.15
2023-04-25T16:47:59.553Z,3.60
2023-04-25T16:50:27.125Z,5.90
2023-04-25T16:52:54.660Z,4.22
2023-04-25T16:55:22.131Z,3.30
2023-04-25T16:57:49.008Z,3.95
2023-04-25T17:00:16.627Z,4.63
2023-04-25T17:02:43.834Z,7.85
2023-04-25T17:05:10.791Z,5.28
2023-04-25T17:07:37.586Z,5.32
2023-04-25T17:10:04.788Z,6.10
2023-04-25T17:12:31.570Z,7.35
2023-04-25T17:15:00.413Z,6.38
2023-04-25T17:17:27.877Z,6.70
2023-04-25T17:19:54.779Z,5.70
2023-04-25T17:22:22.411Z,4.22
2023-04-25T17:24:49.523Z,5.35
2023-04-25T17:27:16.366Z,6.38
2023-04-25T17:29:43.285Z,7.45
2023-04-25T17:32:10.584Z,4.75
2023-04-25T17:34:40.005Z,6.07
2023-04-25T17:37:08.502Z,4.85
2023-04-25T17:39:35.274Z,3.63
2023-04-25T17:42:02.450Z,6.75
2023-04-25T17:44:29.280Z,6.13
2023-04-25T17:46:56.048Z,6.35
2023-04-25T17:49:22.940Z,5.75
2023-04-25T17:51:49.758Z,6.05
2023-04-25T17:54:16.942Z,5.35
2023-04-25T17:56:44.808Z,4.65
2023-04-25T17:59:11.695Z,4.57
2023-04-25T18:01:38.616Z,7.93
2023-04-25T18:04:05.892Z,5.32
2023-04-25T18:06:33.227Z,5.70
2023-04-25T18:09:00.210Z,4.95
2023-04-25T18:11:39.470Z,4.53
2023-04-25T18:14:06.432Z,4.53
2023-04-25T18:16:33.276Z,5.95
2023-04-25T18:19:05.412Z,9.63
2023-04-25T18:21:32.529Z,6.40
2023-04-25T18:23:59.276Z,5.85
2023-04-25T18:26:26.060Z,4.20
2023-04-25T18:28:53.073Z,4.70
2023-04-25T18:31:25.269Z,8.32
2023-04-25T18:33:52.448Z,5.55
2023-04-25T18:36:19.395Z,5.70
2023-04-25T18:38:50.331Z,5.82
2023-04-25T18:41:48.067Z,6.10
2023-04-25T18:44:05.338Z,4.55
2023-04-25T18:46:32.996Z,5.20
2023-04-25T18:49:00.871Z,5.22
2023-04-25T18:51:31.603Z,6.13
2023-04-25T18:53:59.328Z,5.38
2023-04-25T18:56:27.529Z,5.75
2023-04-25T18:58:55.434Z,5.25
2023-04-25T19:01:25.179Z,5.43
2023-04-25T19:03:57.134Z,4.65
2023-04-25T19:06:28.074Z,4.53
2023-04-25T19:08:56.414Z,7.13
2023-04-25T19:11:24.134Z,8.80
2023-04-25T19:13:52.829Z,10.02
2023-04-25T19:16:19.773Z,5.63
2023-04-25T19:18:46.973Z,5.97
2023-04-25T19:21:14.081Z,7.13
2023-04-25T19:23:41.458Z,4.15
2023-04-25T19:26:08.533Z,7.03
2023-04-25T19:28:35.299Z,4.95
2023-04-25T19:31:02.511Z,6.72
2023-04-25T19:33:29.518Z,6.15
2023-04-25T19:35:56.541Z,5.30
2023-04-25T19:38:23.337Z,7.05
2023-04-25T19:40:50.230Z,6.43
2023-04-25T19:43:17.568Z,9.30
2023-04-25T19:45:44.352Z,8.55
2023-04-25T19:48:12.233Z,5.00
2023-04-25T19:50:39.027Z,7.93
2023-04-25T19:53:05.956Z,5.93
2023-04-25T19:55:32.920Z,6.78
2023-04-25T19:57:59.670Z,6.07
2023-04-25T20:00:26.909Z,7.68
2023-04-25T20:02:55.566Z,5.78
2023-04-25T20:05:23.555Z,7.97
2023-04-25T20:07:50.491Z,7.93
2023-04-25T20:10:18.558Z,8.35
2023-04-25T20:12:45.780Z,9.52
2023-04-25T20:15:13.579Z,7.10
2023-04-25T20:17:42.464Z,7.07
2023-04-25T20:20:11.376Z,6.85
2023-04-25T20:22:40.174Z,9.32
2023-04-25T20:25:08.805Z,11.05
2023-04-25T20:27:37.954Z,7.88
2023-04-25T20:30:08.653Z,8.07
2023-04-25T20:32:36.373Z,8.63
2023-04-25T20:35:04.753Z,11.35
2023-04-25T20:37:31.854Z,10.60
2023-04-25T20:40:03.717Z,11.75
2023-04-25T20:42:34.361Z,11.27
2023-04-25T20:45:01.283Z,11.38
2023-04-25T20:47:28.907Z,11.27
2023-04-25T20:49:55.668Z,10.68
2023-04-25T20:52:22.838Z,9.30
2023-04-25T20:54:50.660Z,11.70
2023-04-25T20:57:17.773Z,7.55
2023-04-25T20:59:44.849Z,9.60
2023-04-25T21:02:15.823Z,8.00
2023-04-25T21:04:46.250Z,10.55
2023-04-25T21:07:13.528Z,10.70
2023-04-25T21:09:41.852Z,8.40
2023-04-25T21:12:09.004Z,7.80
2023-04-25T21:14:35.894Z,8.07
2023-04-25T21:17:03.893Z,9.88
2023-04-25T21:19:31.175Z,9.48
2023-04-25T21:21:58.928Z,8.90
2023-04-25T21:24:27.147Z,8.70
2023-04-25T21:26:53.994Z,8.35
2023-04-25T21:29:20.809Z,6.50
2023-04-25T21:31:48.979Z,7.45
2023-04-25T21:34:15.921Z,10.95
2023-04-25T21:36:44.269Z,8.07
2023-04-25T21:39:11.387Z,9.63
2023-04-25T21:41:38.684Z,8.10
2023-04-25T21:44:06.477Z,10.93
2023-04-25T21:46:33.985Z,13.25
2023-04-25T21:49:01.137Z,10.23
2023-04-25T21:51:29.093Z,10.18
2023-04-25T21:53:55.910Z,10.02
2023-04-25T21:56:23.126Z,11.43
2023-04-25T21:58:50.776Z,9.98
2023-04-25T22:01:18.220Z,8.13
2023-04-25T22:03:45.190Z,8.07
2023-04-25T22:06:12.164Z,11.20
2023-04-25T22:08:40.329Z,8.95
2023-04-25T22:11:08.146Z,9.50
2023-04-25T22:13:35.885Z,10.25
2023-04-25T22:16:02.877Z,8.75
2023-04-25T22:18:30.501Z,10.80
2023-04-25T22:20:57.379Z,9.55
2023-04-25T22:23:24.201Z,6.57
2023-04-25T22:25:50.996Z,8.25
2023-04-25T22:28:18.240Z,8.05
2023-04-25T22:30:45.084Z,8.52
2023-04-25T22:33:11.914Z,8.05
2023-04-25T22:35:38.781Z,8.40
2023-04-25T22:38:05.514Z,10.15
2023-04-25T22:40:32.537Z,6.13
2023-04-25T22:42:59.285Z,7.45
2023-04-25T22:45:26.039Z,8.57
2023-04-25T22:47:53.324Z,7.13
2023-04-25T22:50:20.518Z,5.95
2023-04-25T22:52:48.524Z,8.07
2023-04-25T22:55:15.406Z,6.10
2023-04-25T22:57:42.446Z,6.70
2023-04-25T23:00:19.888Z,6.13
2023-04-25T23:02:47.294Z,7.93
2023-04-25T23:05:15.068Z,7.03
2023-04-25T23:07:42.470Z,7.40
2023-04-25T23:10:09.641Z,7.18
2023-04-25T23:12:36.594Z,5.90
2023-04-25T23:15:05.213Z,6.55
2023-04-25T23:17:32.182Z,7.90
2023-04-25T23:19:59.028Z,8.02
2023-04-25T23:22:25.861Z,5.45
2023-04-25T23:24:52.585Z,4.10
2023-04-25T23:27:19.381Z,5.30
2023-04-25T23:29:54.717Z,8.15
2023-04-25T23:32:22.367Z,5.55
2023-04-25T23:34:49.484Z,7.07
2023-04-25T23:37:16.534Z,5.53
2023-04-25T23:39:53.385Z,6.30
2023-04-25T23:42:20.562Z,7.78
2023-04-25T23:44:47.408Z,6.75
2023-04-25T23:47:17.545Z,6.70
2023-04-25T23:49:45.180Z,7.70
2023-04-25T23:52:12.024Z,7.57
2023-04-25T23:54:39.933Z,7.05
2023-04-25T23:57:06.766Z,7.32
2023-04-25T23:59:33.759Z,7.78
